Terminal Aerodrome Forecast
Issued by NWS

Home | Current Version | Previous Version | Text Only | Print | Product List | Glossary On
Versions: 1 2 3 4 5 6 7 8 9 10 11 12 13 14 15 16
799
FTUS45 KABQ 011146
TAFSAF
TAF
KSAF 011146Z 0112/0212 02012KT P6SM VCSH SCT015 OVC040
      TEMPO 0112/0114 5SM -RA BR BKN020
     FM011500 14015G25KT P6SM VCSH BKN040
     FM012000 13018G28KT P6SM VCSH BKN050
     FM020100 15015KT P6SM OVC050
      TEMPO 0208/0212 OVC015=

USA.gov is the U.S. government's official web portal to all federal, state and local government web resources and services.